sensor_id;sensor_type;location;lat;lon;timestamp;temperature;humidity
78767;SHT31;68092;51.982;5.680;2023-03-31T00:02:19;13.8;65.0
78767;SHT31;68092;51.982;5.680;2023-03-31T00:04:49;13.9;65.0
78767;SHT31;68092;51.982;5.680;2023-03-31T00:07:20;13.8;65.3
78767;SHT31;68092;51.982;5.680;2023-03-31T00:09:51;13.8;65.1
78767;SHT31;68092;51.982;5.680;2023-03-31T00:12:24;13.8;65.3
78767;SHT31;68092;51.982;5.680;2023-03-31T00:14:53;13.9;65.3
78767;SHT31;68092;51.982;5.680;2023-03-31T00:17:23;13.9;65.5
78767;SHT31;68092;51.982;5.680;2023-03-31T00:19:52;13.9;65.5
78767;SHT31;68092;51.982;5.680;2023-03-31T00:22:26;13.9;65.7
78767;SHT31;68092;51.982;5.680;2023-03-31T00:24:56;13.9;66.0
78767;SHT31;68092;51.982;5.680;2023-03-31T00:27:25;13.9;66.0
78767;SHT31;68092;51.982;5.680;2023-03-31T00:29:56;13.9;66.0
78767;SHT31;68092;51.982;5.680;2023-03-31T00:32:26;13.9;66.0
78767;SHT31;68092;51.982;5.680;2023-03-31T00:34:55;13.8;66.0
78767;SHT31;68092;51.982;5.680;2023-03-31T00:37:25;13.8;66.1
78767;SHT31;68092;51.982;5.680;2023-03-31T00:39:54;13.8;66.2
78767;SHT31;68092;51.982;5.680;2023-03-31T00:42:24;13.8;66.3
78767;SHT31;68092;51.982;5.680;2023-03-31T00:45:41;13.8;66.1
78767;SHT31;68092;51.982;5.680;2023-03-31T00:48:19;13.9;66.4
78767;SHT31;68092;51.982;5.680;2023-03-31T00:50:53;13.9;66.6
78767;SHT31;68092;51.982;5.680;2023-03-31T00:53:28;13.9;66.9
78767;SHT31;68092;51.982;5.680;2023-03-31T00:56:05;13.9;67.1
78767;SHT31;68092;51.982;5.680;2023-03-31T00:58:35;13.9;67.6
78767;SHT31;68092;51.982;5.680;2023-03-31T01:01:13;13.9;67.7
78767;SHT31;68092;51.982;5.680;2023-03-31T01:03:46;13.9;68.1
78767;SHT31;68092;51.982;5.680;2023-03-31T01:06:18;13.9;68.4
78767;SHT31;68092;51.982;5.680;2023-03-31T01:08:51;13.9;68.8
78767;SHT31;68092;51.982;5.680;2023-03-31T01:11:27;13.9;68.8
78767;SHT31;68092;51.982;5.680;2023-03-31T01:14:00;13.9;68.9
78767;SHT31;68092;51.982;5.680;2023-03-31T01:16:30;13.8;68.8
78767;SHT31;68092;51.982;5.680;2023-03-31T01:19:00;13.8;68.9
78767;SHT31;68092;51.982;5.680;2023-03-31T01:22:07;13.8;69.0
78767;SHT31;68092;51.982;5.680;2023-03-31T01:25:58;13.8;68.8
78767;SHT31;68092;51.982;5.680;2023-03-31T01:28:41;13.9;68.8
78767;SHT31;68092;51.982;5.680;2023-03-31T01:32:15;13.9;68.6
78767;SHT31;68092;51.982;5.680;2023-03-31T01:35:06;13.9;68.5
78767;SHT31;68092;51.982;5.680;2023-03-31T01:38:17;13.9;68.2
78767;SHT31;68092;51.982;5.680;2023-03-31T01:41:44;13.9;68.1
78767;SHT31;68092;51.982;5.680;2023-03-31T01:44:24;13.9;67.9
78767;SHT31;68092;51.982;5.680;2023-03-31T01:47:01;14.0;67.9
78767;SHT31;68092;51.982;5.680;2023-03-31T01:49:41;14.0;67.8
78767;SHT31;68092;51.982;5.680;2023-03-31T01:52:20;14.0;67.7
78767;SHT31;68092;51.982;5.680;2023-03-31T01:54:55;14.0;67.7
78767;SHT31;68092;51.982;5.680;2023-03-31T01:57:32;14.0;67.6
78767;SHT31;68092;51.982;5.680;2023-03-31T02:00:06;14.0;67.7
78767;SHT31;68092;51.982;5.680;2023-03-31T02:02:48;14.0;67.7
78767;SHT31;68092;51.982;5.680;2023-03-31T02:05:24;14.0;67.8
78767;SHT31;68092;51.982;5.680;2023-03-31T02:08:04;14.0;67.7
78767;SHT31;68092;51.982;5.680;2023-03-31T02:10:35;14.0;67.8
78767;SHT31;68092;51.982;5.680;2023-03-31T02:13:10;14.0;67.8
78767;SHT31;68092;51.982;5.680;2023-03-31T02:15:44;14.0;67.6
78767;SHT31;68092;51.982;5.680;2023-03-31T02:18:19;14.0;67.6
78767;SHT31;68092;51.982;5.680;2023-03-31T02:20:54;14.0;67.7
78767;SHT31;68092;51.982;5.680;2023-03-31T02:23:28;14.0;67.7
78767;SHT31;68092;51.982;5.680;2023-03-31T02:26:03;14.0;67.8
78767;SHT31;68092;51.982;5.680;2023-03-31T02:28:36;14.0;67.8
78767;SHT31;68092;51.982;5.680;2023-03-31T02:31:22;14.0;68.0
78767;SHT31;68092;51.982;5.680;2023-03-31T02:33:54;14.0;68.1
78767;SHT31;68092;51.982;5.680;2023-03-31T02:36:24;14.0;68.0
78767;SHT31;68092;51.982;5.680;2023-03-31T02:38:59;14.0;68.0
78767;SHT31;68092;51.982;5.680;2023-03-31T02:41:32;14.0;68.1
78767;SHT31;68092;51.982;5.680;2023-03-31T02:44:02;14.0;68.4
78767;SHT31;68092;51.982;5.680;2023-03-31T02:46:36;14.0;68.5
78767;SHT31;68092;51.982;5.680;2023-03-31T02:49:09;14.0;68.6
78767;SHT31;68092;51.982;5.680;2023-03-31T02:52:08;14.0;69.0
78767;SHT31;68092;51.982;5.680;2023-03-31T02:55:15;13.9;69.0
78767;SHT31;68092;51.982;5.680;2023-03-31T02:58:49;13.9;69.0
78767;SHT31;68092;51.982;5.680;2023-03-31T03:01:52;13.9;68.8
78767;SHT31;68092;51.982;5.680;2023-03-31T03:04:40;13.9;68.8
78767;SHT31;68092;51.982;5.680;2023-03-31T03:07:24;13.9;68.4
78767;SHT31;68092;51.982;5.680;2023-03-31T03:10:03;13.9;68.6
78767;SHT31;68092;51.982;5.680;2023-03-31T03:12:45;13.9;68.5
78767;SHT31;68092;51.982;5.680;2023-03-31T03:15:22;13.9;68.4
78767;SHT31;68092;51.982;5.680;2023-03-31T03:17:55;13.9;68.4
78767;SHT31;68092;51.982;5.680;2023-03-31T03:20:25;13.9;68.3
78767;SHT31;68092;51.982;5.680;2023-03-31T03:22:54;13.9;68.2
78767;SHT31;68092;51.982;5.680;2023-03-31T03:25:27;13.9;68.2
78767;SHT31;68092;51.982;5.680;2023-03-31T03:28:00;13.9;68.2
78767;SHT31;68092;51.982;5.680;2023-03-31T03:30:30;13.8;68.0
78767;SHT31;68092;51.982;5.680;2023-03-31T03:32:59;13.8;67.9
78767;SHT31;68092;51.982;5.680;2023-03-31T03:35:30;13.8;67.9
78767;SHT31;68092;51.982;5.680;2023-03-31T03:37:59;13.8;68.1
78767;SHT31;68092;51.982;5.680;2023-03-31T03:40:30;13.8;68.5
78767;SHT31;68092;51.982;5.680;2023-03-31T03:43:00;13.8;68.6
78767;SHT31;68092;51.982;5.680;2023-03-31T03:45:29;13.8;68.7
78767;SHT31;68092;51.982;5.680;2023-03-31T03:47:59;13.8;68.7
78767;SHT31;68092;51.982;5.680;2023-03-31T03:50:28;13.8;68.8
78767;SHT31;68092;51.982;5.680;2023-03-31T03:52:58;13.8;68.8
78767;SHT31;68092;51.982;5.680;2023-03-31T03:55:31;13.8;68.9
78767;SHT31;68092;51.982;5.680;2023-03-31T03:58:01;13.8;69.0
78767;SHT31;68092;51.982;5.680;2023-03-31T04:00:30;13.8;68.9
78767;SHT31;68092;51.982;5.680;2023-03-31T04:03:00;13.8;68.9
78767;SHT31;68092;51.982;5.680;2023-03-31T04:05:30;13.8;69.1
78767;SHT31;68092;51.982;5.680;2023-03-31T04:07:59;13.8;69.3
78767;SHT31;68092;51.982;5.680;2023-03-31T04:10:29;13.9;69.4
78767;SHT31;68092;51.982;5.680;2023-03-31T04:13:00;13.9;69.2
78767;SHT31;68092;51.982;5.680;2023-03-31T04:15:30;13.9;69.3
78767;SHT31;68092;51.982;5.680;2023-03-31T04:17:59;13.9;69.3
78767;SHT31;68092;51.982;5.680;2023-03-31T04:20:29;13.9;69.1
78767;SHT31;68092;51.982;5.680;2023-03-31T04:22:59;13.9;69.4
78767;SHT31;68092;51.982;5.680;2023-03-31T04:25:29;13.8;69.7
78767;SHT31;68092;51.982;5.680;2023-03-31T04:27:58;13.8;69.7
78767;SHT31;68092;51.982;5.680;2023-03-31T04:30:28;13.8;69.8
78767;SHT31;68092;51.982;5.680;2023-03-31T04:33:01;13.8;69.7
78767;SHT31;68092;51.982;5.680;2023-03-31T04:35:33;13.8;69.7
78767;SHT31;68092;51.982;5.680;2023-03-31T04:38:15;13.8;69.6
78767;SHT31;68092;51.982;5.680;2023-03-31T04:40:49;13.8;69.6
78767;SHT31;68092;51.982;5.680;2023-03-31T04:43:20;13.8;69.7
78767;SHT31;68092;51.982;5.680;2023-03-31T04:45:52;13.8;69.9
78767;SHT31;68092;51.982;5.680;2023-03-31T04:48:22;13.8;69.7
78767;SHT31;68092;51.982;5.680;2023-03-31T04:50:53;13.7;69.4
78767;SHT31;68092;51.982;5.680;2023-03-31T04:53:23;13.7;69.9
78767;SHT31;68092;51.982;5.680;2023-03-31T04:55:54;13.7;70.1
78767;SHT31;68092;51.982;5.680;2023-03-31T04:58:28;13.7;70.4
78767;SHT31;68092;51.982;5.680;2023-03-31T05:00:58;13.7;70.6
78767;SHT31;68092;51.982;5.680;2023-03-31T05:03:27;13.7;70.1
78767;SHT31;68092;51.982;5.680;2023-03-31T05:05:57;13.7;70.2
78767;SHT31;68092;51.982;5.680;2023-03-31T05:08:27;13.7;70.4
78767;SHT31;68092;51.982;5.680;2023-03-31T05:10:57;13.7;70.4
78767;SHT31;68092;51.982;5.680;2023-03-31T05:13:27;13.7;70.3
78767;SHT31;68092;51.982;5.680;2023-03-31T05:15:56;13.6;70.3
78767;SHT31;68092;51.982;5.680;2023-03-31T05:18:28;13.6;70.2
78767;SHT31;68092;51.982;5.680;2023-03-31T05:21:14;13.6;70.2
78767;SHT31;68092;51.982;5.680;2023-03-31T05:23:45;13.6;70.3
78767;SHT31;68092;51.982;5.680;2023-03-31T05:26:17;13.6;70.5
78767;SHT31;68092;51.982;5.680;2023-03-31T05:28:48;13.6;70.4
78767;SHT31;68092;51.982;5.680;2023-03-31T05:31:19;13.6;70.5
78767;SHT31;68092;51.982;5.680;2023-03-31T05:33:49;13.6;70.3
78767;SHT31;68092;51.982;5.680;2023-03-31T05:36:18;13.5;70.2
78767;SHT31;68092;51.982;5.680;2023-03-31T05:38:53;13.5;70.2
78767;SHT31;68092;51.982;5.680;2023-03-31T05:41:22;13.5;70.5
78767;SHT31;68092;51.982;5.680;2023-03-31T05:43:52;13.5;70.3
78767;SHT31;68092;51.982;5.680;2023-03-31T05:46:22;13.5;70.2
78767;SHT31;68092;51.982;5.680;2023-03-31T05:48:53;13.5;70.0
78767;SHT31;68092;51.982;5.680;2023-03-31T05:51:23;13.5;70.2
78767;SHT31;68092;51.982;5.680;2023-03-31T05:53:53;13.5;70.2
78767;SHT31;68092;51.982;5.680;2023-03-31T05:56:22;13.5;70.1
78767;SHT31;68092;51.982;5.680;2023-03-31T05:58:53;13.5;69.8
78767;SHT31;68092;51.982;5.680;2023-03-31T06:01:23;13.5;69.8
78767;SHT31;68092;51.982;5.680;2023-03-31T06:03:53;13.5;70.2
78767;SHT31;68092;51.982;5.680;2023-03-31T06:06:23;13.5;70.3
78767;SHT31;68092;51.982;5.680;2023-03-31T06:08:54;13.5;70.4
78767;SHT31;68092;51.982;5.680;2023-03-31T06:11:23;13.5;70.1
78767;SHT31;68092;51.982;5.680;2023-03-31T06:13:53;13.4;70.2
78767;SHT31;68092;51.982;5.680;2023-03-31T06:16:22;13.4;69.7
78767;SHT31;68092;51.982;5.680;2023-03-31T06:18:54;13.4;69.4
78767;SHT31;68092;51.982;5.680;2023-03-31T06:21:24;13.4;69.6
78767;SHT31;68092;51.982;5.680;2023-03-31T06:23:54;13.4;69.6
78767;SHT31;68092;51.982;5.680;2023-03-31T06:26:25;13.4;69.7
78767;SHT31;68092;51.982;5.680;2023-03-31T06:28:56;13.4;69.7
78767;SHT31;68092;51.982;5.680;2023-03-31T06:31:26;13.4;69.7
78767;SHT31;68092;51.982;5.680;2023-03-31T06:33:55;13.4;69.7
78767;SHT31;68092;51.982;5.680;2023-03-31T06:36:25;13.4;69.7
78767;SHT31;68092;51.982;5.680;2023-03-31T06:38:56;13.4;69.4
78767;SHT31;68092;51.982;5.680;2023-03-31T06:41:26;13.5;69.5
78767;SHT31;68092;51.982;5.680;2023-03-31T06:43:56;13.5;69.4
78767;SHT31;68092;51.982;5.680;2023-03-31T06:46:25;13.5;69.3
78767;SHT31;68092;51.982;5.680;2023-03-31T06:48:55;13.5;69.4
78767;SHT31;68092;51.982;5.680;2023-03-31T06:51:25;13.5;68.9
78767;SHT31;68092;51.982;5.680;2023-03-31T06:53:54;13.5;69.2
78767;SHT31;68092;51.982;5.680;2023-03-31T06:56:25;13.5;68.9
78767;SHT31;68092;51.982;5.680;2023-03-31T06:58:55;13.5;69.0
78767;SHT31;68092;51.982;5.680;2023-03-31T07:01:25;13.5;68.4
78767;SHT31;68092;51.982;5.680;2023-03-31T07:03:55;13.5;68.8
78767;SHT31;68092;51.982;5.680;2023-03-31T07:06:24;13.5;69.0
78767;SHT31;68092;51.982;5.680;2023-03-31T07:08:54;13.5;69.0
78767;SHT31;68092;51.982;5.680;2023-03-31T07:11:24;13.5;68.7
78767;SHT31;68092;51.982;5.680;2023-03-31T07:13:55;13.6;69.9
78767;SHT31;68092;51.982;5.680;2023-03-31T07:16:25;13.6;69.2
78767;SHT31;68092;51.982;5.680;2023-03-31T07:18:55;13.6;69.4
78767;SHT31;68092;51.982;5.680;2023-03-31T07:21:26;13.6;69.6
78767;SHT31;68092;51.982;5.680;2023-03-31T07:23:58;13.6;69.9
78767;SHT31;68092;51.982;5.680;2023-03-31T07:26:27;13.6;70.4
78767;SHT31;68092;51.982;5.680;2023-03-31T07:28:57;13.6;69.9
78767;SHT31;68092;51.982;5.680;2023-03-31T07:31:28;13.6;70.0
78767;SHT31;68092;51.982;5.680;2023-03-31T07:33:59;13.6;69.7
78767;SHT31;68092;51.982;5.680;2023-03-31T07:36:30;13.6;70.0
78767;SHT31;68092;51.982;5.680;2023-03-31T07:38:59;13.6;70.4
78767;SHT31;68092;51.982;5.680;2023-03-31T07:41:30;13.7;71.0
78767;SHT31;68092;51.982;5.680;2023-03-31T07:44:00;13.7;71.0
78767;SHT31;68092;51.982;5.680;2023-03-31T07:46:30;13.7;70.2
78767;SHT31;68092;51.982;5.680;2023-03-31T07:49:00;13.8;70.0
78767;SHT31;68092;51.982;5.680;2023-03-31T07:51:30;13.8;69.9
78767;SHT31;68092;51.982;5.680;2023-03-31T07:54:01;13.9;70.6
78767;SHT31;68092;51.982;5.680;2023-03-31T07:56:30;13.9;70.5
78767;SHT31;68092;51.982;5.680;2023-03-31T07:59:02;14.0;70.2
78767;SHT31;68092;51.982;5.680;2023-03-31T08:01:31;14.0;70.0
78767;SHT31;68092;51.982;5.680;2023-03-31T08:04:01;14.1;69.5
78767;SHT31;68092;51.982;5.680;2023-03-31T08:06:31;14.1;69.2
78767;SHT31;68092;51.982;5.680;2023-03-31T08:09:02;14.2;69.5
78767;SHT31;68092;51.982;5.680;2023-03-31T08:11:33;14.2;69.4
78767;SHT31;68092;51.982;5.680;2023-03-31T08:14:03;14.2;69.4
78767;SHT31;68092;51.982;5.680;2023-03-31T08:16:32;14.2;69.7
78767;SHT31;68092;51.982;5.680;2023-03-31T08:19:02;14.3;69.3
78767;SHT31;68092;51.982;5.680;2023-03-31T08:21:32;14.3;69.3
78767;SHT31;68092;51.982;5.680;2023-03-31T08:24:01;14.3;69.3
78767;SHT31;68092;51.982;5.680;2023-03-31T08:26:34;14.3;69.7
78767;SHT31;68092;51.982;5.680;2023-03-31T08:29:03;14.3;69.1
78767;SHT31;68092;51.982;5.680;2023-03-31T08:31:33;14.3;69.0
78767;SHT31;68092;51.982;5.680;2023-03-31T08:34:03;14.3;69.7
78767;SHT31;68092;51.982;5.680;2023-03-31T08:36:33;14.3;70.1
78767;SHT31;68092;51.982;5.680;2023-03-31T08:39:03;14.3;69.3
78767;SHT31;68092;51.982;5.680;2023-03-31T08:41:46;14.3;70.7
78767;SHT31;68092;51.982;5.680;2023-03-31T08:44:22;14.3;70.8
78767;SHT31;68092;51.982;5.680;2023-03-31T08:46:56;14.3;70.3
78767;SHT31;68092;51.982;5.680;2023-03-31T08:49:32;14.3;70.3
78767;SHT31;68092;51.982;5.680;2023-03-31T08:52:12;14.3;70.5
78767;SHT31;68092;51.982;5.680;2023-03-31T08:54:50;14.4;71.3
78767;SHT31;68092;51.982;5.680;2023-03-31T08:57:24;14.4;70.8
78767;SHT31;68092;51.982;5.680;2023-03-31T08:59:54;14.4;70.5
78767;SHT31;68092;51.982;5.680;2023-03-31T09:02:36;14.4;70.5
78767;SHT31;68092;51.982;5.680;2023-03-31T09:05:20;14.5;71.0
78767;SHT31;68092;51.982;5.680;2023-03-31T09:07:59;14.5;69.7
78767;SHT31;68092;51.982;5.680;2023-03-31T09:10:40;14.5;69.6
78767;SHT31;68092;51.982;5.680;2023-03-31T09:13:27;14.5;70.0
78767;SHT31;68092;51.982;5.680;2023-03-31T09:16:03;14.6;69.9
78767;SHT31;68092;51.982;5.680;2023-03-31T09:18:38;14.6;70.6
78767;SHT31;68092;51.982;5.680;2023-03-31T09:21:19;14.6;70.2
78767;SHT31;68092;51.982;5.680;2023-03-31T09:23:56;14.6;70.0
78767;SHT31;68092;51.982;5.680;2023-03-31T09:26:36;14.7;69.9
78767;SHT31;68092;51.982;5.680;2023-03-31T09:29:14;14.7;69.7
78767;SHT31;68092;51.982;5.680;2023-03-31T09:31:45;14.7;70.2
78767;SHT31;68092;51.982;5.680;2023-03-31T09:34:24;14.7;69.5
78767;SHT31;68092;51.982;5.680;2023-03-31T09:36:55;14.8;69.4
78767;SHT31;68092;51.982;5.680;2023-03-31T09:39:25;14.8;69.9
78767;SHT31;68092;51.982;5.680;2023-03-31T09:41:55;14.8;69.7
78767;SHT31;68092;51.982;5.680;2023-03-31T09:44:37;14.9;69.2
78767;SHT31;68092;51.982;5.680;2023-03-31T09:47:13;14.9;68.5
78767;SHT31;68092;51.982;5.680;2023-03-31T09:49:45;15.0;68.5
78767;SHT31;68092;51.982;5.680;2023-03-31T09:52:26;15.0;66.6
78767;SHT31;68092;51.982;5.680;2023-03-31T09:55:00;15.0;66.1
78767;SHT31;68092;51.982;5.680;2023-03-31T09:57:34;15.0;66.9
78767;SHT31;68092;51.982;5.680;2023-03-31T10:00:15;15.1;66.4
78767;SHT31;68092;51.982;5.680;2023-03-31T10:02:49;15.1;66.0
78767;SHT31;68092;51.982;5.680;2023-03-31T10:05:26;15.1;65.8
78767;SHT31;68092;51.982;5.680;2023-03-31T10:08:21;15.1;65.4
78767;SHT31;68092;51.982;5.680;2023-03-31T10:11:09;15.1;65.5
78767;SHT31;68092;51.982;5.680;2023-03-31T10:13:45;15.2;64.9
78767;SHT31;68092;51.982;5.680;2023-03-31T10:16:21;15.2;63.7
78767;SHT31;68092;51.982;5.680;2023-03-31T10:18:51;15.2;64.3
78767;SHT31;68092;51.982;5.680;2023-03-31T10:21:23;15.2;63.9
78767;SHT31;68092;51.982;5.680;2023-03-31T10:23:54;15.2;63.3
78767;SHT31;68092;51.982;5.680;2023-03-31T10:26:29;15.2;63.6
78767;SHT31;68092;51.982;5.680;2023-03-31T10:28:58;15.2;64.1
78767;SHT31;68092;51.982;5.680;2023-03-31T10:31:35;15.3;64.6
78767;SHT31;68092;51.982;5.680;2023-03-31T10:34:08;15.3;65.4
78767;SHT31;68092;51.982;5.680;2023-03-31T10:36:47;15.3;64.0
78767;SHT31;68092;51.982;5.680;2023-03-31T10:39:19;15.4;62.7
78767;SHT31;68092;51.982;5.680;2023-03-31T10:41:52;15.4;62.5
78767;SHT31;68092;51.982;5.680;2023-03-31T10:44:34;15.5;61.6
78767;SHT31;68092;51.982;5.680;2023-03-31T10:47:20;15.5;63.3
78767;SHT31;68092;51.982;5.680;2023-03-31T10:49:55;15.5;62.8
78767;SHT31;68092;51.982;5.680;2023-03-31T10:52:29;15.6;61.8
78767;SHT31;68092;51.982;5.680;2023-03-31T10:55:13;15.6;61.6
78767;SHT31;68092;51.982;5.680;2023-03-31T10:57:54;15.7;61.2
78767;SHT31;68092;51.982;5.680;2023-03-31T11:00:33;15.7;61.3
78767;SHT31;68092;51.982;5.680;2023-03-31T11:03:32;15.8;61.2
78767;SHT31;68092;51.982;5.680;2023-03-31T11:06:10;15.9;60.7
78767;SHT31;68092;51.982;5.680;2023-03-31T11:08:54;15.9;59.6
78767;SHT31;68092;51.982;5.680;2023-03-31T11:11:45;15.9;60.3
78767;SHT31;68092;51.982;5.680;2023-03-31T11:14:26;16.0;60.0
78767;SHT31;68092;51.982;5.680;2023-03-31T11:17:01;16.0;60.3
78767;SHT31;68092;51.982;5.680;2023-03-31T11:19:44;16.1;60.4
78767;SHT31;68092;51.982;5.680;2023-03-31T11:22:27;16.1;59.4
78767;SHT31;68092;51.982;5.680;2023-03-31T11:25:12;16.1;59.7
78767;SHT31;68092;51.982;5.680;2023-03-31T11:28:09;16.1;58.7
78767;SHT31;68092;51.982;5.680;2023-03-31T11:30:45;16.1;58.8
78767;SHT31;68092;51.982;5.680;2023-03-31T11:33:33;16.1;59.2
78767;SHT31;68092;51.982;5.680;2023-03-31T11:36:15;16.1;59.8
78767;SHT31;68092;51.982;5.680;2023-03-31T11:39:01;16.2;59.2
78767;SHT31;68092;51.982;5.680;2023-03-31T11:41:38;16.2;58.3
78767;SHT31;68092;51.982;5.680;2023-03-31T11:44:17;16.2;58.1
78767;SHT31;68092;51.982;5.680;2023-03-31T11:46:52;16.1;58.3
78767;SHT31;68092;51.982;5.680;2023-03-31T11:49:27;16.1;58.5
78767;SHT31;68092;51.982;5.680;2023-03-31T11:52:01;16.1;59.1
78767;SHT31;68092;51.982;5.680;2023-03-31T11:54:35;16.1;59.5
78767;SHT31;68092;51.982;5.680;2023-03-31T11:57:14;16.1;58.6
78767;SHT31;68092;51.982;5.680;2023-03-31T11:59:51;16.1;58.6
78767;SHT31;68092;51.982;5.680;2023-03-31T12:02:33;16.1;58.1
78767;SHT31;68092;51.982;5.680;2023-03-31T12:05:09;16.1;59.9
78767;SHT31;68092;51.982;5.680;2023-03-31T12:07:44;16.1;60.1
78767;SHT31;68092;51.982;5.680;2023-03-31T12:10:19;16.1;58.6
78767;SHT31;68092;51.982;5.680;2023-03-31T12:12:54;16.1;57.8
78767;SHT31;68092;51.982;5.680;2023-03-31T12:15:32;16.1;57.4
78767;SHT31;68092;51.982;5.680;2023-03-31T12:18:11;16.0;57.6
78767;SHT31;68092;51.982;5.680;2023-03-31T12:20:49;16.0;57.4
78767;SHT31;68092;51.982;5.680;2023-03-31T12:23:23;16.0;57.4
78767;SHT31;68092;51.982;5.680;2023-03-31T12:26:00;16.0;58.2
78767;SHT31;68092;51.982;5.680;2023-03-31T12:28:37;16.0;58.5
78767;SHT31;68092;51.982;5.680;2023-03-31T12:31:18;16.0;57.9
78767;SHT31;68092;51.982;5.680;2023-03-31T12:33:54;16.0;58.3
78767;SHT31;68092;51.982;5.680;2023-03-31T12:36:40;16.0;59.3
78767;SHT31;68092;51.982;5.680;2023-03-31T12:39:33;15.9;59.4
78767;SHT31;68092;51.982;5.680;2023-03-31T12:42:38;15.9;59.7
78767;SHT31;68092;51.982;5.680;2023-03-31T12:45:22;15.9;59.1
78767;SHT31;68092;51.982;5.680;2023-03-31T12:49:28;15.8;60.1
78767;SHT31;68092;51.982;5.680;2023-03-31T12:52:05;15.8;61.0
78767;SHT31;68092;51.982;5.680;2023-03-31T12:55:05;15.7;61.5
78767;SHT31;68092;51.982;5.680;2023-03-31T12:57:38;15.7;61.7
78767;SHT31;68092;51.982;5.680;2023-03-31T13:00:19;15.7;60.5
78767;SHT31;68092;51.982;5.680;2023-03-31T13:05:46;15.6;62.3
78767;SHT31;68092;51.982;5.680;2023-03-31T13:08:54;15.6;61.2
78767;SHT31;68092;51.982;5.680;2023-03-31T13:11:36;15.6;62.2
78767;SHT31;68092;51.982;5.680;2023-03-31T13:14:16;15.6;62.8
78767;SHT31;68092;51.982;5.680;2023-03-31T13:16:49;15.7;61.5
78767;SHT31;68092;51.982;5.680;2023-03-31T13:19:29;15.7;60.6
78767;SHT31;68092;51.982;5.680;2023-03-31T13:22:02;15.7;59.8
78767;SHT31;68092;51.982;5.680;2023-03-31T13:24:37;15.7;60.7
78767;SHT31;68092;51.982;5.680;2023-03-31T13:27:30;15.8;59.6
78767;SHT31;68092;51.982;5.680;2023-03-31T13:30:01;15.8;60.1
78767;SHT31;68092;51.982;5.680;2023-03-31T13:32:33;15.8;61.0
78767;SHT31;68092;51.982;5.680;2023-03-31T13:35:06;15.8;60.2
78767;SHT31;68092;51.982;5.680;2023-03-31T13:37:59;15.8;60.2
78767;SHT31;68092;51.982;5.680;2023-03-31T13:42:59;15.8;60.0
78767;SHT31;68092;51.982;5.680;2023-03-31T13:45:49;15.8;58.9
78767;SHT31;68092;51.982;5.680;2023-03-31T13:48:40;15.8;59.4
78767;SHT31;68092;51.982;5.680;2023-03-31T13:51:27;15.8;59.6
78767;SHT31;68092;51.982;5.680;2023-03-31T13:54:29;15.8;59.7
78767;SHT31;68092;51.982;5.680;2023-03-31T13:57:27;15.7;61.6
78767;SHT31;68092;51.982;5.680;2023-03-31T14:00:19;15.7;62.6
78767;SHT31;68092;51.982;5.680;2023-03-31T14:03:16;15.7;62.5
78767;SHT31;68092;51.982;5.680;2023-03-31T14:05:54;15.7;62.5
78767;SHT31;68092;51.982;5.680;2023-03-31T14:08:35;15.6;62.6
78767;SHT31;68092;51.982;5.680;2023-03-31T14:11:21;15.6;63.3
78767;SHT31;68092;51.982;5.680;2023-03-31T14:14:06;15.5;63.4
78767;SHT31;68092;51.982;5.680;2023-03-31T14:16:43;15.5;64.3
78767;SHT31;68092;51.982;5.680;2023-03-31T14:19:40;15.4;63.7
78767;SHT31;68092;51.982;5.680;2023-03-31T14:22:22;15.4;64.9
78767;SHT31;68092;51.982;5.680;2023-03-31T14:25:04;15.4;63.8
78767;SHT31;68092;51.982;5.680;2023-03-31T14:27:52;15.4;63.9
78767;SHT31;68092;51.982;5.680;2023-03-31T14:30:32;15.4;63.2
78767;SHT31;68092;51.982;5.680;2023-03-31T14:33:20;15.3;63.6
78767;SHT31;68092;51.982;5.680;2023-03-31T14:35:57;15.3;63.3
78767;SHT31;68092;51.982;5.680;2023-03-31T14:38:29;15.3;63.8
78767;SHT31;68092;51.982;5.680;2023-03-31T14:41:00;15.3;63.8
78767;SHT31;68092;51.982;5.680;2023-03-31T14:43:33;15.3;63.9
78767;SHT31;68092;51.982;5.680;2023-03-31T14:46:08;15.3;64.5
78767;SHT31;68092;51.982;5.680;2023-03-31T14:48:42;15.3;63.7
78767;SHT31;68092;51.982;5.680;2023-03-31T14:51:17;15.3;64.0
78767;SHT31;68092;51.982;5.680;2023-03-31T14:53:49;15.3;63.9
78767;SHT31;68092;51.982;5.680;2023-03-31T14:56:31;15.3;63.5
78767;SHT31;68092;51.982;5.680;2023-03-31T14:59:08;15.3;63.6
78767;SHT31;68092;51.982;5.680;2023-03-31T15:01:40;15.3;63.5
78767;SHT31;68092;51.982;5.680;2023-03-31T15:04:16;15.3;63.6
78767;SHT31;68092;51.982;5.680;2023-03-31T15:06:49;15.3;64.0
78767;SHT31;68092;51.982;5.680;2023-03-31T15:09:23;15.3;63.6
78767;SHT31;68092;51.982;5.680;2023-03-31T15:11:59;15.3;62.8
78767;SHT31;68092;51.982;5.680;2023-03-31T15:14:33;15.2;63.0
78767;SHT31;68092;51.982;5.680;2023-03-31T15:17:04;15.2;63.4
78767;SHT31;68092;51.982;5.680;2023-03-31T15:19:34;15.2;63.3
78767;SHT31;68092;51.982;5.680;2023-03-31T15:22:10;15.1;63.0
78767;SHT31;68092;51.982;5.680;2023-03-31T15:24:41;15.1;63.6
78767;SHT31;68092;51.982;5.680;2023-03-31T15:27:16;15.0;64.2
78767;SHT31;68092;51.982;5.680;2023-03-31T15:29:49;15.0;64.3
78767;SHT31;68092;51.982;5.680;2023-03-31T15:32:26;15.0;65.8
78767;SHT31;68092;51.982;5.680;2023-03-31T15:34:57;15.0;66.9
78767;SHT31;68092;51.982;5.680;2023-03-31T15:37:39;15.0;65.7
78767;SHT31;68092;51.982;5.680;2023-03-31T15:40:18;15.0;66.1
78767;SHT31;68092;51.982;5.680;2023-03-31T15:42:53;15.0;66.0
78767;SHT31;68092;51.982;5.680;2023-03-31T15:46:09;15.0;65.4
78767;SHT31;68092;51.982;5.680;2023-03-31T15:48:50;15.0;64.1
78767;SHT31;68092;51.982;5.680;2023-03-31T15:51:24;15.0;64.9
78767;SHT31;68092;51.982;5.680;2023-03-31T15:53:57;15.0;65.1
78767;SHT31;68092;51.982;5.680;2023-03-31T15:56:30;15.0;65.4
78767;SHT31;68092;51.982;5.680;2023-03-31T15:59:01;15.0;65.0
78767;SHT31;68092;51.982;5.680;2023-03-31T16:01:40;14.9;64.8
78767;SHT31;68092;51.982;5.680;2023-03-31T16:04:13;14.9;64.8
78767;SHT31;68092;51.982;5.680;2023-03-31T16:06:47;14.9;64.9
78767;SHT31;68092;51.982;5.680;2023-03-31T16:09:23;14.9;65.5
78767;SHT31;68092;51.982;5.680;2023-03-31T16:11:57;14.9;65.6
78767;SHT31;68092;51.982;5.680;2023-03-31T16:14:33;14.9;65.3
78767;SHT31;68092;51.982;5.680;2023-03-31T16:17:09;14.9;64.2
78767;SHT31;68092;51.982;5.680;2023-03-31T16:19:43;14.9;64.6
78767;SHT31;68092;51.982;5.680;2023-03-31T16:22:22;14.8;64.5
78767;SHT31;68092;51.982;5.680;2023-03-31T16:24:56;14.8;65.0
78767;SHT31;68092;51.982;5.680;2023-03-31T16:27:27;14.7;65.1
78767;SHT31;68092;51.982;5.680;2023-03-31T16:30:09;14.7;64.8
78767;SHT31;68092;51.982;5.680;2023-03-31T16:33:02;14.6;65.2
78767;SHT31;68092;51.982;5.680;2023-03-31T16:35:35;14.6;65.5
78767;SHT31;68092;51.982;5.680;2023-03-31T16:38:08;14.6;65.1
78767;SHT31;68092;51.982;5.680;2023-03-31T16:40:40;14.6;65.6
78767;SHT31;68092;51.982;5.680;2023-03-31T16:43:15;14.5;65.6
78767;SHT31;68092;51.982;5.680;2023-03-31T16:45:47;14.5;66.0
78767;SHT31;68092;51.982;5.680;2023-03-31T16:48:20;14.5;65.7
78767;SHT31;68092;51.982;5.680;2023-03-31T16:50:53;14.4;65.4
78767;SHT31;68092;51.982;5.680;2023-03-31T16:53:26;14.4;65.8
78767;SHT31;68092;51.982;5.680;2023-03-31T16:55:57;14.4;66.1
78767;SHT31;68092;51.982;5.680;2023-03-31T16:58:28;14.4;66.7
78767;SHT31;68092;51.982;5.680;2023-03-31T17:00:58;14.3;66.8
78767;SHT31;68092;51.982;5.680;2023-03-31T17:03:28;14.3;66.6
78767;SHT31;68092;51.982;5.680;2023-03-31T17:06:04;14.3;67.0
78767;SHT31;68092;51.982;5.680;2023-03-31T17:08:34;14.3;67.1